createdAt,value
2023-09-02T00:00:11.805Z,11.68
2023-09-02T00:02:38.277Z,12.38
2023-09-02T00:05:05.016Z,12.65
2023-09-02T00:07:31.669Z,10.95
2023-09-02T00:09:58.147Z,11.20
2023-09-02T00:12:24.734Z,10.32
2023-09-02T00:14:51.266Z,10.73
2023-09-02T00:17:17.836Z,10.77
2023-09-02T00:19:44.563Z,10.32
2023-09-02T00:22:11.035Z,10.70
2023-09-02T00:24:37.494Z,10.57
2023-09-02T00:27:04.114Z,9.75
2023-09-02T00:29:30.502Z,9.77
2023-09-02T00:31:57.067Z,10.18
2023-09-02T00:34:23.945Z,10.27
2023-09-02T00:36:50.572Z,10.32
2023-09-02T00:39:17.992Z,10.48
2023-09-02T00:41:49.089Z,10.35
2023-09-02T00:44:15.788Z,10.63
2023-09-02T00:46:42.356Z,10.80
2023-09-02T00:49:09.010Z,10.15
2023-09-02T00:51:35.445Z,9.45
2023-09-02T00:54:02.116Z,11.00
2023-09-02T00:56:30.087Z,9.43
2023-09-02T00:58:59.247Z,11.05
2023-09-02T01:01:27.230Z,9.73
2023-09-02T01:03:54.146Z,9.45
2023-09-02T01:06:22.357Z,9.43
2023-09-02T01:08:49.071Z,10.02
2023-09-02T01:11:15.624Z,9.80
2023-09-02T01:13:42.152Z,9.80
2023-09-02T01:16:08.574Z,9.90
2023-09-02T01:18:36.905Z,8.45
2023-09-02T01:21:26.149Z,9.88
2023-09-02T01:24:22.772Z,9.15
2023-09-02T01:26:58.212Z,9.93
2023-09-02T01:29:29.365Z,9.45
2023-09-02T01:31:56.407Z,10.50
2023-09-02T01:34:25.493Z,8.43
2023-09-02T01:36:54.208Z,9.73
2023-09-02T01:41:51.255Z,8.88
2023-09-02T01:44:18.559Z,9.95
2023-09-02T01:46:46.906Z,9.55
2023-09-02T01:49:13.536Z,9.25
2023-09-02T01:51:41.476Z,8.98
2023-09-02T01:54:08.683Z,8.73
2023-09-02T01:56:36.519Z,8.20
2023-09-02T01:59:03.061Z,8.75
2023-09-02T02:01:29.648Z,8.00
2023-09-02T02:04:06.648Z,7.93
2023-09-02T02:06:36.407Z,7.65
2023-09-02T02:09:06.596Z,7.15
2023-09-02T02:11:38.069Z,7.38
2023-09-02T02:14:06.149Z,7.18
2023-09-02T02:16:33.461Z,9.05
2023-09-02T02:19:00.614Z,9.43
2023-09-02T02:21:28.033Z,10.25
2023-09-02T02:23:54.493Z,7.50
2023-09-02T02:26:21.631Z,9.00
2023-09-02T02:28:48.777Z,8.65
2023-09-02T02:31:15.297Z,8.82
2023-09-02T02:33:41.788Z,7.63
2023-09-02T02:36:10.589Z,9.55
2023-09-02T02:38:37.865Z,9.02
2023-09-02T02:41:04.456Z,8.40
2023-09-02T02:43:31.288Z,8.25
2023-09-02T02:45:57.910Z,9.27
2023-09-02T02:48:28.599Z,8.70
2023-09-02T02:50:55.950Z,8.35
2023-09-02T02:53:22.940Z,9.02
2023-09-02T02:55:49.547Z,7.85
2023-09-02T02:58:18.781Z,10.18
2023-09-02T03:00:46.001Z,9.27
2023-09-02T03:03:14.094Z,9.85
2023-09-02T03:05:41.430Z,10.63
2023-09-02T03:08:09.196Z,9.38
2023-09-02T03:10:36.898Z,9.30
2023-09-02T03:13:04.085Z,9.45
2023-09-02T03:15:30.559Z,9.55
2023-09-02T03:17:57.119Z,9.55
2023-09-02T03:20:23.703Z,9.35
2023-09-02T03:22:50.155Z,8.75
2023-09-02T03:25:16.753Z,8.63
2023-09-02T03:27:43.371Z,9.68
2023-09-02T03:30:10.311Z,8.63
2023-09-02T03:32:36.768Z,9.63
2023-09-02T03:35:05.386Z,8.93
2023-09-02T03:37:31.868Z,9.85
2023-09-02T03:39:58.600Z,9.60
2023-09-02T03:42:25.104Z,8.70
2023-09-02T03:44:51.837Z,9.48
2023-09-02T03:47:18.391Z,9.20
2023-09-02T03:49:44.898Z,11.43
2023-09-02T03:52:11.397Z,10.45
2023-09-02T03:54:39.872Z,9.57
2023-09-02T03:57:06.690Z,10.80
2023-09-02T03:59:33.271Z,11.02
2023-09-02T04:01:59.731Z,10.00
2023-09-02T04:04:27.103Z,10.18
2023-09-02T04:06:53.606Z,10.93
2023-09-02T04:09:20.027Z,9.48
2023-09-02T04:11:46.509Z,9.50
2023-09-02T04:14:13.018Z,10.77
2023-09-02T04:16:39.713Z,9.30
2023-09-02T04:19:06.261Z,9.32
2023-09-02T04:21:32.941Z,10.43
2023-09-02T04:23:59.615Z,9.70
2023-09-02T04:26:26.176Z,8.77
2023-09-02T04:28:55.340Z,9.93
2023-09-02T04:31:21.804Z,8.38
2023-09-02T04:33:48.252Z,8.88
2023-09-02T04:36:14.733Z,8.98
2023-09-02T04:38:41.196Z,8.85
2023-09-02T04:41:08.016Z,9.40
2023-09-02T04:43:39.144Z,9.88
2023-09-02T04:46:05.833Z,9.48
2023-09-02T04:48:32.469Z,9.45
2023-09-02T04:51:00.059Z,8.65
2023-09-02T04:53:26.785Z,9.18
2023-09-02T04:55:53.250Z,9.82
2023-09-02T04:58:21.603Z,8.73
2023-09-02T05:00:48.324Z,8.55
2023-09-02T05:03:14.807Z,9.13
2023-09-02T05:05:41.990Z,8.60
2023-09-02T05:08:08.557Z,9.43
2023-09-02T05:10:35.257Z,8.90
2023-09-02T05:13:01.757Z,9.43
2023-09-02T05:15:28.305Z,8.27
2023-09-02T05:17:57.577Z,8.23
2023-09-02T05:20:24.234Z,8.32
2023-09-02T05:22:50.711Z,8.70
2023-09-02T05:25:17.357Z,8.57
2023-09-02T05:27:43.859Z,7.85
2023-09-02T05:30:10.646Z,8.38
2023-09-02T05:32:37.226Z,8.30
2023-09-02T05:35:03.992Z,8.45
2023-09-02T05:37:30.444Z,8.15
2023-09-02T05:39:57.330Z,7.35
2023-09-02T05:42:23.860Z,8.82
2023-09-02T05:44:50.333Z,7.93
2023-09-02T05:47:16.802Z,8.00
2023-09-02T05:49:43.381Z,8.00
2023-09-02T05:52:09.830Z,7.15
2023-09-02T05:54:36.354Z,8.73
2023-09-02T05:57:03.141Z,7.45
2023-09-02T05:59:30.426Z,8.23
2023-09-02T06:01:57.914Z,8.95
2023-09-02T06:04:24.503Z,8.20
2023-09-02T06:06:51.149Z,7.70
2023-09-02T06:09:17.871Z,7.40
2023-09-02T06:11:46.142Z,6.88
2023-09-02T06:14:12.650Z,6.70
2023-09-02T06:16:39.163Z,6.10
2023-09-02T06:19:05.685Z,7.45
2023-09-02T06:21:32.251Z,6.82
2023-09-02T06:23:58.707Z,7.15
2023-09-02T06:26:26.707Z,6.78
2023-09-02T06:28:53.277Z,6.82
2023-09-02T06:31:19.886Z,6.43
2023-09-02T06:33:46.396Z,7.25
2023-09-02T06:36:14.354Z,7.15
2023-09-02T06:38:40.780Z,6.78
2023-09-02T06:41:11.921Z,6.65
2023-09-02T06:43:39.824Z,6.70
2023-09-02T06:46:17.715Z,7.03
2023-09-02T06:48:45.369Z,6.70
2023-09-02T06:51:12.059Z,7.95
2023-09-02T06:53:39.317Z,7.13
2023-09-02T06:56:09.974Z,6.22
2023-09-02T06:58:40.236Z,6.85
2023-09-02T07:01:06.867Z,6.40
2023-09-02T07:03:33.839Z,6.45
2023-09-02T07:06:08.084Z,6.20
2023-09-02T07:08:34.776Z,6.53
2023-09-02T07:11:03.450Z,5.90
2023-09-02T07:13:29.915Z,6.50
2023-09-02T07:16:00.881Z,5.88
2023-09-02T07:18:27.416Z,6.80
2023-09-02T07:21:01.153Z,5.55
2023-09-02T07:23:28.504Z,6.40
2023-09-02T07:25:56.762Z,6.05
2023-09-02T07:28:23.379Z,7.22
2023-09-02T07:30:50.011Z,6.47
2023-09-02T07:33:16.845Z,6.65
2023-09-02T07:35:43.732Z,7.35
2023-09-02T07:38:10.319Z,7.30
2023-09-02T07:40:36.849Z,6.80
2023-09-02T07:43:03.597Z,6.63
2023-09-02T07:45:30.552Z,7.10
2023-09-02T07:47:57.040Z,7.65
2023-09-02T07:50:23.503Z,6.78
2023-09-02T07:52:50.072Z,6.80
2023-09-02T07:55:18.741Z,7.18
2023-09-02T07:57:45.740Z,7.00
2023-09-02T08:00:12.713Z,7.57
2023-09-02T08:02:39.634Z,6.80
2023-09-02T08:05:07.210Z,6.97
2023-09-02T08:07:33.723Z,7.90
2023-09-02T08:10:00.411Z,6.85
2023-09-02T08:12:26.902Z,7.28
2023-09-02T08:14:53.310Z,7.97
2023-09-02T08:17:20.718Z,6.68
2023-09-02T08:19:48.011Z,6.45
2023-09-02T08:22:14.788Z,8.00
2023-09-02T08:24:43.073Z,6.78
2023-09-02T08:27:09.979Z,7.70
2023-09-02T08:29:36.572Z,7.72
2023-09-02T08:32:03.291Z,7.72
2023-09-02T08:34:29.820Z,8.45
2023-09-02T08:36:56.307Z,7.05
2023-09-02T08:39:22.730Z,8.57
2023-09-02T08:41:51.013Z,7.67
2023-09-02T08:44:18.773Z,7.35
2023-09-02T08:46:48.155Z,8.57
2023-09-02T08:49:16.859Z,7.65
2023-09-02T08:51:44.425Z,8.50
2023-09-02T08:54:12.876Z,7.43
2023-09-02T08:56:43.556Z,8.45
2023-09-02T08:59:11.260Z,8.55
2023-09-02T09:01:45.466Z,8.35
2023-09-02T09:04:15.679Z,8.98
2023-09-02T09:06:42.980Z,8.75
2023-09-02T09:09:10.953Z,9.15
2023-09-02T09:11:41.023Z,8.13
2023-09-02T09:14:11.847Z,8.68
2023-09-02T09:16:42.658Z,7.65
2023-09-02T09:19:12.265Z,8.68
2023-09-02T09:21:39.182Z,8.98
2023-09-02T09:24:05.903Z,9.25
2023-09-02T09:26:32.910Z,7.97
2023-09-02T09:29:00.304Z,9.20
2023-09-02T09:31:28.425Z,8.55
2023-09-02T09:34:01.476Z,8.55
2023-09-02T09:36:30.118Z,8.48
2023-09-02T09:39:01.678Z,9.15
2023-09-02T09:41:32.017Z,8.90
2023-09-02T09:44:13.375Z,11.05
2023-09-02T09:46:54.046Z,9.32
2023-09-02T09:49:33.249Z,9.23
2023-09-02T09:52:02.655Z,8.82
2023-09-02T09:54:38.212Z,9.60
2023-09-02T09:57:06.677Z,10.02
2023-09-02T09:59:35.680Z,9.90
2023-09-02T10:02:05.444Z,8.85
2023-09-02T10:04:33.432Z,9.20
2023-09-02T10:07:04.369Z,10.20
2023-09-02T10:09:46.728Z,8.60
2023-09-02T10:12:14.689Z,9.95
2023-09-02T10:14:42.608Z,10.35
2023-09-02T10:17:10.503Z,10.30
2023-09-02T10:19:38.021Z,9.95
2023-09-02T10:22:05.740Z,9.98
2023-09-02T10:25:06.365Z,9.52
2023-09-02T10:27:41.123Z,9.43
2023-09-02T10:30:17.346Z,9.88
2023-09-02T10:32:52.081Z,9.40
2023-09-02T10:35:23.060Z,8.68
2023-09-02T10:37:57.691Z,9.48
2023-09-02T10:42:52.169Z,9.55
2023-09-02T10:45:19.445Z,8.85
2023-09-02T10:47:47.229Z,9.57
2023-09-02T10:50:19.585Z,8.77
2023-09-02T10:52:49.842Z,9.75
2023-09-02T10:55:23.807Z,8.50
2023-09-02T10:57:57.387Z,9.20
2023-09-02T11:00:28.449Z,9.18
2023-09-02T11:02:57.497Z,9.32
2023-09-02T11:05:26.076Z,9.65
2023-09-02T11:07:54.178Z,9.25
2023-09-02T11:10:22.088Z,10.18
2023-09-02T11:13:00.978Z,9.45
2023-09-02T11:15:31.219Z,9.55
2023-09-02T11:17:58.002Z,9.88
2023-09-02T11:20:29.388Z,10.80
2023-09-02T11:23:02.652Z,9.95
2023-09-02T11:25:39.920Z,10.13
2023-09-02T11:28:25.853Z,10.60
2023-09-02T11:31:02.913Z,10.43
2023-09-02T11:33:29.539Z,10.73
2023-09-02T11:36:25.809Z,10.93
2023-09-02T11:38:56.085Z,10.73
2023-09-02T11:41:26.716Z,10.55
2023-09-02T11:43:54.587Z,9.82
2023-09-02T11:46:21.210Z,10.30
2023-09-02T11:48:47.747Z,10.75
2023-09-02T11:51:14.317Z,10.80
2023-09-02T11:53:44.969Z,10.82
2023-09-02T11:56:13.261Z,10.48
2023-09-02T11:58:39.755Z,10.30
2023-09-02T12:01:06.228Z,11.52
2023-09-02T12:03:33.196Z,10.95
2023-09-02T12:06:02.284Z,11.25
2023-09-02T12:08:32.745Z,11.93
2023-09-02T12:11:05.576Z,10.35
2023-09-02T12:13:33.209Z,11.65
2023-09-02T12:15:59.930Z,10.23
2023-09-02T12:18:26.840Z,9.82
2023-09-02T12:20:53.841Z,8.88
2023-09-02T12:23:20.934Z,9.70
2023-09-02T12:26:23.861Z,9.55
2023-09-02T12:28:50.462Z,9.80
2023-09-02T12:31:18.067Z,9.55
2023-09-02T12:33:44.570Z,10.07
2023-09-02T12:36:11.051Z,10.15
2023-09-02T12:38:52.992Z,9.52
2023-09-02T12:41:19.773Z,10.32
2023-09-02T12:43:46.205Z,9.38
2023-09-02T12:46:18.783Z,9.90
2023-09-02T12:48:47.159Z,9.85
2023-09-02T12:51:28.537Z,10.10
2023-09-02T12:53:55.800Z,9.50
2023-09-02T12:56:22.314Z,9.25
2023-09-02T12:58:48.817Z,9.35
2023-09-02T13:01:15.224Z,10.75
2023-09-02T13:03:42.170Z,10.85
2023-09-02T13:06:08.650Z,11.07
2023-09-02T13:08:35.138Z,10.30
2023-09-02T13:11:04.607Z,10.25
2023-09-02T13:13:31.554Z,9.52
2023-09-02T13:16:00.401Z,8.93
2023-09-02T13:18:27.214Z,9.00
2023-09-02T13:20:54.089Z,8.73
2023-09-02T13:23:21.984Z,8.50
2023-09-02T13:25:50.507Z,9.18
2023-09-02T13:28:17.093Z,8.27
2023-09-02T13:30:46.546Z,8.38
2023-09-02T13:33:15.390Z,8.80
2023-09-02T13:35:41.942Z,7.82
2023-09-02T13:38:10.010Z,8.65
2023-09-02T13:40:37.882Z,8.43
2023-09-02T13:43:07.984Z,7.57
2023-09-02T13:45:37.498Z,8.27
2023-09-02T13:48:07.673Z,7.90
2023-09-02T13:50:35.857Z,8.48
2023-09-02T13:53:02.483Z,9.25
2023-09-02T13:55:37.242Z,9.88
2023-09-02T13:58:03.844Z,9.00
2023-09-02T14:00:36.971Z,8.57
2023-09-02T14:03:04.633Z,8.55
2023-09-02T14:05:31.315Z,8.75
2023-09-02T14:08:04.068Z,8.25
2023-09-02T14:10:32.760Z,7.78
2023-09-02T14:13:20.635Z,7.93
2023-09-02T14:15:47.217Z,7.82
2023-09-02T14:18:14.149Z,8.15
2023-09-02T14:20:41.819Z,7.95
2023-09-02T14:23:08.303Z,8.93
2023-09-02T14:25:34.832Z,8.25
2023-09-02T14:28:01.399Z,7.07
2023-09-02T14:30:27.936Z,7.18
2023-09-02T14:32:54.501Z,6.25
2023-09-02T14:35:21.105Z,5.80
2023-09-02T14:37:47.645Z,5.90
2023-09-02T14:40:14.135Z,5.53
2023-09-02T14:42:40.757Z,5.88
2023-09-02T14:45:07.689Z,5.38
2023-09-02T14:47:35.329Z,6.20
2023-09-02T14:50:01.861Z,5.85
2023-09-02T14:52:28.593Z,5.45
2023-09-02T14:54:55.534Z,5.18
2023-09-02T14:57:23.742Z,5.60
2023-09-02T14:59:51.607Z,4.93
2023-09-02T15:02:41.746Z,5.88
2023-09-02T15:05:11.345Z,5.57
2023-09-02T15:07:40.757Z,5.65
2023-09-02T15:10:08.601Z,4.82
2023-09-02T15:12:36.900Z,4.85
2023-09-02T15:15:07.814Z,5.10
2023-09-02T15:17:34.578Z,4.35
2023-09-02T15:20:01.653Z,4.95
2023-09-02T15:22:28.555Z,4.38
2023-09-02T15:24:55.459Z,3.85
2023-09-02T15:27:23.961Z,3.85
2023-09-02T15:29:51.510Z,3.72
2023-09-02T15:32:18.352Z,4.28
2023-09-02T15:34:49.069Z,3.17
2023-09-02T15:37:24.634Z,3.90
2023-09-02T15:39:55.733Z,3.72
2023-09-02T15:42:23.210Z,4.80
2023-09-02T15:44:49.835Z,4.85
2023-09-02T15:47:16.372Z,3.80
2023-09-02T15:49:42.841Z,3.67
2023-09-02T15:52:09.326Z,3.67
2023-09-02T15:54:36.960Z,3.88
2023-09-02T15:57:05.363Z,3.10
2023-09-02T15:59:33.565Z,3.78
2023-09-02T16:02:00.101Z,3.97
2023-09-02T16:04:26.591Z,3.45
2023-09-02T16:06:53.053Z,3.40
2023-09-02T16:09:19.521Z,3.08
2023-09-02T16:11:46.050Z,3.10
2023-09-02T16:14:12.557Z,3.67
2023-09-02T16:16:39.035Z,2.85
2023-09-02T16:19:05.515Z,2.95
2023-09-02T16:21:32.020Z,2.38
2023-09-02T16:23:58.465Z,2.95
2023-09-02T16:26:25.009Z,2.72
2023-09-02T16:28:51.459Z,2.55
2023-09-02T16:31:17.999Z,2.53
2023-09-02T16:33:44.581Z,2.55
2023-09-02T16:36:11.126Z,3.15
2023-09-02T16:38:37.617Z,2.80
2023-09-02T16:41:04.998Z,3.05
2023-09-02T16:43:32.153Z,3.13
2023-09-02T16:45:59.323Z,4.05
2023-09-02T16:48:25.847Z,3.30
2023-09-02T16:50:52.501Z,3.47
2023-09-02T16:53:19.865Z,4.15
2023-09-02T16:55:48.339Z,3.85
2023-09-02T16:58:21.930Z,3.70
2023-09-02T17:00:48.580Z,3.70
2023-09-02T17:03:20.194Z,3.78
2023-09-02T17:05:46.992Z,4.60
2023-09-02T17:08:22.023Z,4.88
2023-09-02T17:10:48.701Z,4.40
2023-09-02T17:13:16.072Z,5.50
2023-09-02T17:15:42.636Z,5.65
2023-09-02T17:18:10.314Z,5.53
2023-09-02T17:20:39.008Z,5.32
2023-09-02T17:25:44.185Z,5.22
2023-09-02T17:28:18.446Z,5.47
2023-09-02T17:30:45.490Z,5.13
2023-09-02T17:33:12.093Z,4.53
2023-09-02T17:35:38.694Z,4.50
2023-09-02T17:38:05.300Z,4.10
2023-09-02T17:40:32.944Z,4.18
2023-09-02T17:42:59.468Z,4.38
2023-09-02T17:45:25.974Z,3.65
2023-09-02T17:47:52.606Z,3.67
2023-09-02T17:50:19.164Z,3.58
2023-09-02T17:52:45.698Z,4.28
2023-09-02T17:55:12.817Z,4.00
2023-09-02T17:57:39.361Z,4.00
2023-09-02T18:00:06.837Z,3.30
2023-09-02T18:02:33.445Z,3.58
2023-09-02T18:05:02.374Z,3.30
2023-09-02T18:07:29.059Z,3.13
2023-09-02T18:09:55.609Z,2.92
2023-09-02T18:12:22.426Z,2.92
2023-09-02T18:14:48.963Z,3.00
2023-09-02T18:17:16.018Z,2.67
2023-09-02T18:19:42.949Z,2.60
2023-09-02T18:22:10.172Z,2.63
2023-09-02T18:24:37.706Z,2.80
2023-09-02T18:27:05.374Z,3.03
2023-09-02T18:29:32.871Z,2.85
2023-09-02T18:32:00.891Z,2.50
2023-09-02T18:34:27.418Z,2.70
2023-09-02T18:36:54.315Z,2.83
2023-09-02T18:39:24.939Z,2.67
2023-09-02T18:41:52.287Z,2.75
2023-09-02T18:44:19.928Z,2.47
2023-09-02T18:46:47.991Z,2.80
2023-09-02T18:49:17.093Z,2.78
2023-09-02T18:51:43.753Z,2.42
2023-09-02T18:54:11.014Z,2.20
2023-09-02T18:56:38.082Z,2.95
2023-09-02T18:59:05.019Z,2.60
2023-09-02T19:01:32.579Z,2.70
2023-09-02T19:03:59.372Z,2.30
2023-09-02T19:06:25.868Z,2.20
2023-09-02T19:08:52.320Z,2.00
2023-09-02T19:11:18.941Z,2.30
2023-09-02T19:13:45.431Z,2.63
2023-09-02T19:16:12.034Z,2.40
2023-09-02T19:18:38.546Z,2.25
2023-09-02T19:21:05.051Z,2.72
2023-09-02T19:23:31.462Z,2.58
2023-09-02T19:25:57.899Z,2.63
2023-09-02T19:28:25.833Z,2.28
2023-09-02T19:30:55.121Z,2.33
2023-09-02T19:33:21.763Z,2.17
2023-09-02T19:35:48.285Z,2.72
2023-09-02T19:38:15.444Z,2.35
2023-09-02T19:40:42.144Z,2.47
2023-09-02T19:43:08.594Z,3.15
2023-09-02T19:45:35.090Z,2.33
2023-09-02T19:48:01.568Z,2.60
2023-09-02T19:50:28.203Z,2.70
2023-09-02T19:52:54.605Z,3.35
2023-09-02T19:55:21.049Z,2.95
2023-09-02T19:57:47.603Z,2.50
2023-09-02T20:00:15.660Z,2.38
2023-09-02T20:02:42.117Z,2.63
2023-09-02T20:05:09.305Z,3.47
2023-09-02T20:07:35.879Z,3.13
2023-09-02T20:10:02.447Z,3.08
2023-09-02T20:12:30.651Z,3.20
2023-09-02T20:14:57.376Z,3.40
2023-09-02T20:17:23.848Z,3.72
2023-09-02T20:19:50.333Z,2.60
2023-09-02T20:22:17.412Z,3.42
2023-09-02T20:24:44.024Z,3.90
2023-09-02T20:27:12.752Z,3.92
2023-09-02T20:29:39.188Z,3.33
2023-09-02T20:32:06.389Z,4.80
2023-09-02T20:34:32.906Z,3.30
2023-09-02T20:36:59.347Z,3.45
2023-09-02T20:39:25.887Z,3.17
2023-09-02T20:41:52.395Z,3.00
2023-09-02T20:44:18.964Z,3.85
2023-09-02T20:46:45.444Z,3.20
2023-09-02T20:49:12.005Z,4.63
2023-09-02T20:51:38.569Z,3.80
2023-09-02T20:54:08.876Z,3.88
2023-09-02T20:56:35.445Z,4.05
2023-09-02T20:59:02.058Z,3.95
2023-09-02T21:01:28.729Z,3.78
2023-09-02T21:03:55.610Z,4.28
2023-09-02T21:06:22.124Z,4.00
2023-09-02T21:08:48.582Z,4.25
2023-09-02T21:11:16.781Z,3.58
2023-09-02T21:13:47.667Z,3.90
2023-09-02T21:16:16.279Z,3.58
2023-09-02T21:18:43.030Z,4.10
2023-09-02T21:21:09.567Z,4.05
2023-09-02T21:23:36.196Z,3.67
2023-09-02T21:26:12.924Z,3.80
2023-09-02T21:28:40.389Z,3.92
2023-09-02T21:31:08.341Z,4.85
2023-09-02T21:33:36.055Z,4.70
2023-09-02T21:36:03.389Z,4.45
2023-09-02T21:38:29.968Z,4.60
2023-09-02T21:41:06.812Z,4.90
2023-09-02T21:43:34.320Z,4.70
2023-09-02T21:46:05.491Z,4.70
2023-09-02T21:48:32.164Z,5.43
2023-09-02T21:51:03.091Z,4.57
2023-09-02T21:53:30.079Z,4.32
2023-09-02T21:55:56.772Z,4.63
2023-09-02T21:58:24.458Z,4.60
2023-09-02T22:01:07.261Z,4.47
2023-09-02T22:03:35.243Z,4.85
2023-09-02T22:06:09.384Z,4.03
2023-09-02T22:08:37.272Z,4.97
2023-09-02T22:11:03.847Z,5.15
2023-09-02T22:13:30.290Z,4.47
2023-09-02T22:15:57.396Z,4.85
2023-09-02T22:18:25.792Z,4.78
2023-09-02T22:20:53.821Z,5.05
2023-09-02T22:23:24.807Z,4.90
2023-09-02T22:25:51.653Z,4.68
2023-09-02T22:28:18.178Z,5.07
2023-09-02T22:30:44.859Z,4.50
2023-09-02T22:33:12.273Z,4.43
2023-09-02T22:35:39.263Z,4.25
2023-09-02T22:38:09.188Z,4.10
2023-09-02T22:40:36.817Z,5.25
2023-09-02T22:43:03.397Z,4.30
2023-09-02T22:45:29.957Z,4.18
2023-09-02T22:47:59.985Z,4.68
2023-09-02T22:50:26.660Z,4.13
2023-09-02T22:52:53.258Z,3.88
2023-09-02T22:55:19.798Z,3.85
2023-09-02T22:57:47.118Z,3.53
2023-09-02T23:00:14.882Z,4.10
2023-09-02T23:02:41.521Z,3.55
2023-09-02T23:05:08.634Z,4.07
2023-09-02T23:07:35.086Z,3.47
2023-09-02T23:10:01.641Z,3.78
2023-09-02T23:12:28.118Z,4.72
2023-09-02T23:14:57.419Z,3.42
2023-09-02T23:17:23.946Z,3.88
2023-09-02T23:19:56.133Z,3.47
2023-09-02T23:22:23.522Z,4.53
2023-09-02T23:24:49.963Z,4.05
2023-09-02T23:27:16.408Z,3.83
2023-09-02T23:29:42.895Z,3.78
2023-09-02T23:32:11.248Z,3.92
2023-09-02T23:34:38.168Z,3.70
2023-09-02T23:37:04.919Z,3.72
2023-09-02T23:39:31.489Z,3.08
2023-09-02T23:41:57.987Z,3.88
2023-09-02T23:44:24.413Z,4.55
2023-09-02T23:46:50.903Z,3.38
2023-09-02T23:49:17.270Z,3.67
2023-09-02T23:51:43.838Z,4.10
2023-09-02T23:54:10.368Z,4.38
2023-09-02T23:56:36.902Z,4.15
2023-09-02T23:59:03.357Z,4.13
